sensor_id;sensor_type;location;lat;lon;timestamp;P1;durP1;ratioP1;P2;durP2;ratioP2
55220;SDS011;41089;51.448;6.604;2023-06-05T00:03:03;4.45;;;2.72;;
55220;SDS011;41089;51.448;6.604;2023-06-05T00:09:06;6.68;;;2.28;;
55220;SDS011;41089;51.448;6.604;2023-06-05T00:15:07;3.55;;;2.30;;
55220;SDS011;41089;51.448;6.604;2023-06-05T00:21:08;3.42;;;2.50;;
55220;SDS011;41089;51.448;6.604;2023-06-05T00:27:08;7.30;;;2.70;;
55220;SDS011;41089;51.448;6.604;2023-06-05T00:33:09;4.50;;;2.38;;
55220;SDS011;41089;51.448;6.604;2023-06-05T00:39:10;4.20;;;2.80;;
55220;SDS011;41089;51.448;6.604;2023-06-05T00:45:12;5.20;;;2.65;;
55220;SDS011;41089;51.448;6.604;2023-06-05T00:51:12;5.38;;;2.45;;
55220;SDS011;41089;51.448;6.604;2023-06-05T00:57:15;4.68;;;2.47;;
55220;SDS011;41089;51.448;6.604;2023-06-05T01:03:16;3.13;;;2.40;;
55220;SDS011;41089;51.448;6.604;2023-06-05T01:09:17;3.85;;;2.40;;
55220;SDS011;41089;51.448;6.604;2023-06-05T01:15:18;5.57;;;2.45;;
55220;SDS011;41089;51.448;6.604;2023-06-05T01:21:19;4.47;;;2.15;;
55220;SDS011;41089;51.448;6.604;2023-06-05T01:27:25;6.45;;;2.55;;
55220;SDS011;41089;51.448;6.604;2023-06-05T01:33:29;5.18;;;2.20;;
55220;SDS011;41089;51.448;6.604;2023-06-05T01:39:42;4.60;;;3.08;;
55220;SDS011;41089;51.448;6.604;2023-06-05T01:45:46;5.25;;;3.05;;
55220;SDS011;41089;51.448;6.604;2023-06-05T01:51:48;6.45;;;2.72;;
55220;SDS011;41089;51.448;6.604;2023-06-05T01:57:48;3.88;;;2.65;;
55220;SDS011;41089;51.448;6.604;2023-06-05T02:03:49;5.97;;;2.58;;
55220;SDS011;41089;51.448;6.604;2023-06-05T02:09:53;3.65;;;2.55;;
55220;SDS011;41089;51.448;6.604;2023-06-05T02:15:54;4.18;;;3.15;;
55220;SDS011;41089;51.448;6.604;2023-06-05T02:21:57;4.30;;;2.67;;
55220;SDS011;41089;51.448;6.604;2023-06-05T02:27:58;3.35;;;2.90;;
55220;SDS011;41089;51.448;6.604;2023-06-05T02:33:59;7.65;;;3.05;;
55220;SDS011;41089;51.448;6.604;2023-06-05T02:39:59;4.25;;;3.15;;
55220;SDS011;41089;51.448;6.604;2023-06-05T02:46:00;4.43;;;3.17;;
55220;SDS011;41089;51.448;6.604;2023-06-05T02:52:00;8.17;;;4.03;;
55220;SDS011;41089;51.448;6.604;2023-06-05T02:58:01;4.20;;;3.20;;
55220;SDS011;41089;51.448;6.604;2023-06-05T03:04:01;5.07;;;3.80;;
55220;SDS011;41089;51.448;6.604;2023-06-05T03:10:02;9.30;;;3.45;;
55220;SDS011;41089;51.448;6.604;2023-06-05T03:16:03;6.70;;;3.60;;
55220;SDS011;41089;51.448;6.604;2023-06-05T03:22:04;6.57;;;3.38;;
55220;SDS011;41089;51.448;6.604;2023-06-05T03:28:05;5.03;;;3.35;;
55220;SDS011;41089;51.448;6.604;2023-06-05T03:34:06;5.47;;;3.55;;
55220;SDS011;41089;51.448;6.604;2023-06-05T03:40:07;4.82;;;3.38;;
55220;SDS011;41089;51.448;6.604;2023-06-05T03:46:08;5.90;;;4.18;;
55220;SDS011;41089;51.448;6.604;2023-06-05T03:52:10;7.22;;;3.80;;
55220;SDS011;41089;51.448;6.604;2023-06-05T03:58:11;6.95;;;4.10;;
55220;SDS011;41089;51.448;6.604;2023-06-05T04:04:16;4.95;;;3.58;;
55220;SDS011;41089;51.448;6.604;2023-06-05T04:10:17;5.80;;;3.97;;
55220;SDS011;41089;51.448;6.604;2023-06-05T04:16:18;6.15;;;3.88;;
55220;SDS011;41089;51.448;6.604;2023-06-05T04:22:18;8.02;;;4.75;;
55220;SDS011;41089;51.448;6.604;2023-06-05T04:28:19;6.00;;;3.73;;
55220;SDS011;41089;51.448;6.604;2023-06-05T04:34:19;7.57;;;4.57;;
55220;SDS011;41089;51.448;6.604;2023-06-05T04:40:20;6.45;;;4.22;;
55220;SDS011;41089;51.448;6.604;2023-06-05T04:46:21;6.85;;;4.30;;
55220;SDS011;41089;51.448;6.604;2023-06-05T04:52:21;8.65;;;5.13;;
55220;SDS011;41089;51.448;6.604;2023-06-05T04:58:23;6.90;;;5.20;;
55220;SDS011;41089;51.448;6.604;2023-06-05T05:04:24;9.75;;;5.43;;
55220;SDS011;41089;51.448;6.604;2023-06-05T05:10:24;8.32;;;5.00;;
55220;SDS011;41089;51.448;6.604;2023-06-05T05:16:25;8.55;;;5.70;;
55220;SDS011;41089;51.448;6.604;2023-06-05T05:22:25;11.07;;;6.17;;
55220;SDS011;41089;51.448;6.604;2023-06-05T05:28:27;9.90;;;5.10;;
55220;SDS011;41089;51.448;6.604;2023-06-05T05:34:27;7.63;;;4.80;;
55220;SDS011;41089;51.448;6.604;2023-06-05T05:40:28;10.82;;;5.05;;
55220;SDS011;41089;51.448;6.604;2023-06-05T05:46:28;8.00;;;5.13;;
55220;SDS011;41089;51.448;6.604;2023-06-05T05:52:29;11.13;;;5.00;;
55220;SDS011;41089;51.448;6.604;2023-06-05T05:58:30;8.65;;;6.15;;
55220;SDS011;41089;51.448;6.604;2023-06-05T06:04:34;9.23;;;5.00;;
55220;SDS011;41089;51.448;6.604;2023-06-05T06:10:34;8.50;;;5.00;;
55220;SDS011;41089;51.448;6.604;2023-06-05T06:16:35;10.80;;;6.10;;
55220;SDS011;41089;51.448;6.604;2023-06-05T06:22:37;12.18;;;6.43;;
55220;SDS011;41089;51.448;6.604;2023-06-05T06:28:37;9.18;;;5.82;;
55220;SDS011;41089;51.448;6.604;2023-06-05T06:34:37;8.73;;;6.18;;
55220;SDS011;41089;51.448;6.604;2023-06-05T06:40:39;10.93;;;5.93;;
55220;SDS011;41089;51.448;6.604;2023-06-05T06:46:40;9.50;;;6.03;;
55220;SDS011;41089;51.448;6.604;2023-06-05T06:52:40;8.70;;;5.88;;
55220;SDS011;41089;51.448;6.604;2023-06-05T06:58:42;7.63;;;6.17;;
55220;SDS011;41089;51.448;6.604;2023-06-05T07:04:43;11.55;;;7.15;;
55220;SDS011;41089;51.448;6.604;2023-06-05T07:10:44;9.43;;;6.13;;
55220;SDS011;41089;51.448;6.604;2023-06-05T07:16:44;10.17;;;6.70;;
55220;SDS011;41089;51.448;6.604;2023-06-05T07:22:44;9.18;;;6.15;;
55220;SDS011;41089;51.448;6.604;2023-06-05T07:28:48;15.55;;;6.70;;
55220;SDS011;41089;51.448;6.604;2023-06-05T07:34:49;9.13;;;6.07;;
55220;SDS011;41089;51.448;6.604;2023-06-05T07:40:50;7.65;;;6.05;;
55220;SDS011;41089;51.448;6.604;2023-06-05T07:46:51;9.47;;;6.67;;
55220;SDS011;41089;51.448;6.604;2023-06-05T07:52:52;8.48;;;6.03;;
55220;SDS011;41089;51.448;6.604;2023-06-05T07:58:52;14.68;;;7.35;;
55220;SDS011;41089;51.448;6.604;2023-06-05T08:04:53;9.43;;;6.87;;
55220;SDS011;41089;51.448;6.604;2023-06-05T08:10:53;11.50;;;6.32;;
55220;SDS011;41089;51.448;6.604;2023-06-05T08:16:53;11.43;;;6.70;;
55220;SDS011;41089;51.448;6.604;2023-06-05T08:22:55;8.90;;;5.68;;
55220;SDS011;41089;51.448;6.604;2023-06-05T08:28:59;7.97;;;5.40;;
55220;SDS011;41089;51.448;6.604;2023-06-05T08:35:00;8.30;;;5.55;;
55220;SDS011;41089;51.448;6.604;2023-06-05T08:41:05;6.57;;;5.50;;
55220;SDS011;41089;51.448;6.604;2023-06-05T08:47:10;10.48;;;5.68;;
55220;SDS011;41089;51.448;6.604;2023-06-05T08:53:11;8.50;;;5.30;;
55220;SDS011;41089;51.448;6.604;2023-06-05T08:59:13;7.95;;;4.50;;
55220;SDS011;41089;51.448;6.604;2023-06-05T09:05:15;6.25;;;5.07;;
55220;SDS011;41089;51.448;6.604;2023-06-05T09:11:22;8.50;;;4.72;;
55220;SDS011;41089;51.448;6.604;2023-06-05T09:17:28;7.47;;;5.15;;
55220;SDS011;41089;51.448;6.604;2023-06-05T09:23:28;8.57;;;4.40;;
55220;SDS011;41089;51.448;6.604;2023-06-05T09:29:29;9.77;;;5.23;;
55220;SDS011;41089;51.448;6.604;2023-06-05T09:35:31;12.45;;;5.00;;
55220;SDS011;41089;51.448;6.604;2023-06-05T09:41:35;7.07;;;5.40;;
55220;SDS011;41089;51.448;6.604;2023-06-05T09:47:42;7.95;;;5.03;;
55220;SDS011;41089;51.448;6.604;2023-06-05T09:53:45;8.55;;;4.70;;
55220;SDS011;41089;51.448;6.604;2023-06-05T09:59:52;6.75;;;5.07;;
55220;SDS011;41089;51.448;6.604;2023-06-05T10:05:54;7.13;;;4.47;;
55220;SDS011;41089;51.448;6.604;2023-06-05T10:11:55;9.23;;;5.65;;
55220;SDS011;41089;51.448;6.604;2023-06-05T10:17:56;18.83;;;5.15;;
55220;SDS011;41089;51.448;6.604;2023-06-05T10:24:04;7.87;;;4.90;;
55220;SDS011;41089;51.448;6.604;2023-06-05T10:30:12;7.75;;;4.60;;
55220;SDS011;41089;51.448;6.604;2023-06-05T10:36:28;8.35;;;5.53;;
55220;SDS011;41089;51.448;6.604;2023-06-05T10:42:40;7.85;;;4.88;;
55220;SDS011;41089;51.448;6.604;2023-06-05T10:55:10;10.95;;;4.68;;
55220;SDS011;41089;51.448;6.604;2023-06-05T11:01:16;6.22;;;4.20;;
55220;SDS011;41089;51.448;6.604;2023-06-05T11:07:26;6.68;;;3.75;;
55220;SDS011;41089;51.448;6.604;2023-06-05T11:19:57;7.40;;;4.75;;
55220;SDS011;41089;51.448;6.604;2023-06-05T11:25:58;7.40;;;3.72;;
55220;SDS011;41089;51.448;6.604;2023-06-05T11:32:36;7.72;;;4.38;;
55220;SDS011;41089;51.448;6.604;2023-06-05T11:38:38;4.27;;;3.07;;
55220;SDS011;41089;51.448;6.604;2023-06-05T11:44:38;9.32;;;3.78;;
55220;SDS011;41089;51.448;6.604;2023-06-05T11:50:40;5.88;;;2.75;;
55220;SDS011;41089;51.448;6.604;2023-06-05T11:56:56;5.72;;;3.35;;
55220;SDS011;41089;51.448;6.604;2023-06-05T12:03:01;5.15;;;3.05;;
55220;SDS011;41089;51.448;6.604;2023-06-05T12:09:11;4.32;;;2.70;;
55220;SDS011;41089;51.448;6.604;2023-06-05T12:15:16;6.63;;;3.00;;
55220;SDS011;41089;51.448;6.604;2023-06-05T12:21:25;6.68;;;2.78;;
55220;SDS011;41089;51.448;6.604;2023-06-05T12:27:29;4.47;;;2.97;;
55220;SDS011;41089;51.448;6.604;2023-06-05T12:33:32;7.55;;;3.45;;
55220;SDS011;41089;51.448;6.604;2023-06-05T12:39:32;6.20;;;3.57;;
55220;SDS011;41089;51.448;6.604;2023-06-05T12:45:33;4.85;;;3.22;;
55220;SDS011;41089;51.448;6.604;2023-06-05T12:51:34;7.13;;;2.67;;
55220;SDS011;41089;51.448;6.604;2023-06-05T12:57:34;4.78;;;2.92;;
55220;SDS011;41089;51.448;6.604;2023-06-05T13:03:35;6.38;;;3.70;;
55220;SDS011;41089;51.448;6.604;2023-06-05T13:09:36;5.80;;;3.25;;
55220;SDS011;41089;51.448;6.604;2023-06-05T13:15:36;6.55;;;3.15;;
55220;SDS011;41089;51.448;6.604;2023-06-05T13:21:37;6.85;;;3.50;;
55220;SDS011;41089;51.448;6.604;2023-06-05T13:27:39;7.53;;;3.40;;
55220;SDS011;41089;51.448;6.604;2023-06-05T13:33:39;5.82;;;3.67;;
55220;SDS011;41089;51.448;6.604;2023-06-05T13:39:40;7.07;;;3.33;;
55220;SDS011;41089;51.448;6.604;2023-06-05T13:45:41;9.18;;;4.38;;
55220;SDS011;41089;51.448;6.604;2023-06-05T13:51:42;6.25;;;3.70;;
55220;SDS011;41089;51.448;6.604;2023-06-05T13:57:42;10.87;;;4.40;;
55220;SDS011;41089;51.448;6.604;2023-06-05T14:03:43;4.50;;;3.75;;
55220;SDS011;41089;51.448;6.604;2023-06-05T14:09:44;5.93;;;3.47;;
55220;SDS011;41089;51.448;6.604;2023-06-05T14:15:45;5.72;;;3.63;;
55220;SDS011;41089;51.448;6.604;2023-06-05T14:21:45;6.25;;;3.17;;
55220;SDS011;41089;51.448;6.604;2023-06-05T14:27:46;5.57;;;3.28;;
55220;SDS011;41089;51.448;6.604;2023-06-05T14:33:47;10.70;;;3.63;;
55220;SDS011;41089;51.448;6.604;2023-06-05T14:39:48;4.05;;;3.42;;
55220;SDS011;41089;51.448;6.604;2023-06-05T14:45:51;4.05;;;3.13;;
55220;SDS011;41089;51.448;6.604;2023-06-05T14:51:51;7.67;;;3.10;;
55220;SDS011;41089;51.448;6.604;2023-06-05T14:57:52;4.57;;;3.85;;
55220;SDS011;41089;51.448;6.604;2023-06-05T15:03:52;5.53;;;3.73;;
55220;SDS011;41089;51.448;6.604;2023-06-05T15:09:52;3.50;;;3.20;;
55220;SDS011;41089;51.448;6.604;2023-06-05T15:15:53;3.93;;;3.33;;
55220;SDS011;41089;51.448;6.604;2023-06-05T15:21:53;5.67;;;4.17;;
55220;SDS011;41089;51.448;6.604;2023-06-05T15:27:54;5.87;;;3.57;;
55220;SDS011;41089;51.448;6.604;2023-06-05T15:33:54;4.38;;;3.40;;
55220;SDS011;41089;51.448;6.604;2023-06-05T15:39:55;7.00;;;3.30;;
55220;SDS011;41089;51.448;6.604;2023-06-05T15:45:55;4.27;;;3.20;;
55220;SDS011;41089;51.448;6.604;2023-06-05T15:51:56;3.60;;;3.07;;
55220;SDS011;41089;51.448;6.604;2023-06-05T15:57:57;5.47;;;3.38;;
55220;SDS011;41089;51.448;6.604;2023-06-05T16:03:57;4.93;;;2.95;;
55220;SDS011;41089;51.448;6.604;2023-06-05T16:09:58;3.78;;;2.97;;
55220;SDS011;41089;51.448;6.604;2023-06-05T16:15:58;7.38;;;3.40;;
55220;SDS011;41089;51.448;6.604;2023-06-05T16:22:00;4.27;;;3.27;;
55220;SDS011;41089;51.448;6.604;2023-06-05T16:28:00;5.13;;;3.13;;
55220;SDS011;41089;51.448;6.604;2023-06-05T16:34:07;4.35;;;3.85;;
55220;SDS011;41089;51.448;6.604;2023-06-05T16:40:08;6.03;;;3.03;;
55220;SDS011;41089;51.448;6.604;2023-06-05T16:46:10;3.88;;;3.30;;
55220;SDS011;41089;51.448;6.604;2023-06-05T16:52:11;3.53;;;2.70;;
55220;SDS011;41089;51.448;6.604;2023-06-05T16:58:11;3.53;;;2.63;;
55220;SDS011;41089;51.448;6.604;2023-06-05T17:04:12;3.45;;;2.75;;
55220;SDS011;41089;51.448;6.604;2023-06-05T17:10:12;6.45;;;3.40;;
55220;SDS011;41089;51.448;6.604;2023-06-05T17:16:13;4.65;;;3.25;;
55220;SDS011;41089;51.448;6.604;2023-06-05T17:22:13;4.63;;;3.00;;
55220;SDS011;41089;51.448;6.604;2023-06-05T17:28:14;2.78;;;2.58;;
55220;SDS011;41089;51.448;6.604;2023-06-05T17:34:15;5.10;;;2.70;;
55220;SDS011;41089;51.448;6.604;2023-06-05T17:40:15;7.20;;;2.85;;
55220;SDS011;41089;51.448;6.604;2023-06-05T17:46:16;4.20;;;3.13;;
55220;SDS011;41089;51.448;6.604;2023-06-05T17:52:17;5.47;;;2.90;;
55220;SDS011;41089;51.448;6.604;2023-06-05T17:58:17;3.90;;;2.60;;
55220;SDS011;41089;51.448;6.604;2023-06-05T18:04:18;5.95;;;2.22;;
55220;SDS011;41089;51.448;6.604;2023-06-05T18:10:20;5.15;;;2.90;;
55220;SDS011;41089;51.448;6.604;2023-06-05T18:16:20;8.00;;;2.67;;
55220;SDS011;41089;51.448;6.604;2023-06-05T18:22:21;3.70;;;2.40;;
55220;SDS011;41089;51.448;6.604;2023-06-05T18:28:21;5.43;;;2.70;;
55220;SDS011;41089;51.448;6.604;2023-06-05T18:34:22;2.78;;;2.40;;
55220;SDS011;41089;51.448;6.604;2023-06-05T18:40:23;3.53;;;2.63;;
55220;SDS011;41089;51.448;6.604;2023-06-05T18:46:24;7.90;;;2.40;;
55220;SDS011;41089;51.448;6.604;2023-06-05T18:52:25;4.00;;;2.40;;
55220;SDS011;41089;51.448;6.604;2023-06-05T18:58:27;3.08;;;2.55;;
55220;SDS011;41089;51.448;6.604;2023-06-05T19:04:28;4.25;;;2.38;;
55220;SDS011;41089;51.448;6.604;2023-06-05T19:10:28;4.13;;;3.17;;
55220;SDS011;41089;51.448;6.604;2023-06-05T19:16:30;4.93;;;2.73;;
55220;SDS011;41089;51.448;6.604;2023-06-05T19:22:32;3.83;;;2.13;;
55220;SDS011;41089;51.448;6.604;2023-06-05T19:28:33;4.72;;;2.28;;
55220;SDS011;41089;51.448;6.604;2023-06-05T19:34:33;3.42;;;2.38;;
55220;SDS011;41089;51.448;6.604;2023-06-05T19:40:34;9.00;;;2.40;;
55220;SDS011;41089;51.448;6.604;2023-06-05T19:46:35;2.78;;;2.40;;
55220;SDS011;41089;51.448;6.604;2023-06-05T19:52:39;2.95;;;2.40;;
55220;SDS011;41089;51.448;6.604;2023-06-05T19:58:40;2.72;;;2.50;;
55220;SDS011;41089;51.448;6.604;2023-06-05T20:04:43;4.43;;;2.67;;
55220;SDS011;41089;51.448;6.604;2023-06-05T20:10:44;7.45;;;3.10;;
55220;SDS011;41089;51.448;6.604;2023-06-05T20:16:44;4.30;;;2.90;;
55220;SDS011;41089;51.448;6.604;2023-06-05T20:22:45;5.43;;;3.00;;
55220;SDS011;41089;51.448;6.604;2023-06-05T20:28:45;5.37;;;3.40;;
55220;SDS011;41089;51.448;6.604;2023-06-05T20:34:46;8.40;;;4.03;;
55220;SDS011;41089;51.448;6.604;2023-06-05T20:40:49;6.22;;;3.28;;
55220;SDS011;41089;51.448;6.604;2023-06-05T20:46:51;7.63;;;3.30;;
55220;SDS011;41089;51.448;6.604;2023-06-05T20:52:52;7.40;;;3.13;;
55220;SDS011;41089;51.448;6.604;2023-06-05T20:58:53;5.57;;;3.08;;
55220;SDS011;41089;51.448;6.604;2023-06-05T21:04:54;5.88;;;3.15;;
55220;SDS011;41089;51.448;6.604;2023-06-05T21:10:55;3.60;;;2.70;;
55220;SDS011;41089;51.448;6.604;2023-06-05T21:16:56;5.47;;;3.70;;
55220;SDS011;41089;51.448;6.604;2023-06-05T21:22:56;8.90;;;3.87;;
55220;SDS011;41089;51.448;6.604;2023-06-05T21:28:58;7.53;;;4.45;;
55220;SDS011;41089;51.448;6.604;2023-06-05T21:34:58;6.72;;;4.03;;
55220;SDS011;41089;51.448;6.604;2023-06-05T21:40:59;5.63;;;4.15;;
55220;SDS011;41089;51.448;6.604;2023-06-05T21:47:00;10.13;;;5.43;;
55220;SDS011;41089;51.448;6.604;2023-06-05T21:53:00;6.00;;;3.97;;
55220;SDS011;41089;51.448;6.604;2023-06-05T21:59:02;8.88;;;4.97;;
55220;SDS011;41089;51.448;6.604;2023-06-05T22:05:02;7.45;;;5.07;;
55220;SDS011;41089;51.448;6.604;2023-06-05T22:11:04;8.23;;;5.20;;
55220;SDS011;41089;51.448;6.604;2023-06-05T22:17:04;8.00;;;5.63;;
55220;SDS011;41089;51.448;6.604;2023-06-05T22:23:08;8.30;;;4.60;;
55220;SDS011;41089;51.448;6.604;2023-06-05T22:29:08;6.30;;;5.20;;
55220;SDS011;41089;51.448;6.604;2023-06-05T22:35:09;6.32;;;5.28;;
55220;SDS011;41089;51.448;6.604;2023-06-05T22:41:12;7.75;;;6.05;;
55220;SDS011;41089;51.448;6.604;2023-06-05T22:47:12;7.60;;;6.15;;
55220;SDS011;41089;51.448;6.604;2023-06-05T22:53:13;6.32;;;5.30;;
55220;SDS011;41089;51.448;6.604;2023-06-05T22:59:15;9.65;;;6.38;;
55220;SDS011;41089;51.448;6.604;2023-06-05T23:05:15;9.27;;;5.65;;
55220;SDS011;41089;51.448;6.604;2023-06-05T23:11:17;7.55;;;6.57;;
55220;SDS011;41089;51.448;6.604;2023-06-05T23:17:17;8.45;;;7.05;;
55220;SDS011;41089;51.448;6.604;2023-06-05T23:23:18;7.50;;;6.35;;
55220;SDS011;41089;51.448;6.604;2023-06-05T23:29:24;8.43;;;6.75;;
55220;SDS011;41089;51.448;6.604;2023-06-05T23:35:25;9.00;;;6.97;;
55220;SDS011;41089;51.448;6.604;2023-06-05T23:41:25;8.73;;;6.93;;
55220;SDS011;41089;51.448;6.604;2023-06-05T23:47:26;12.10;;;6.87;;
55220;SDS011;41089;51.448;6.604;2023-06-05T23:53:26;12.20;;;7.38;;
55220;SDS011;41089;51.448;6.604;2023-06-05T23:59:27;10.53;;;7.37;;
